sensor_id;sensor_type;location;lat;lon;timestamp;pressure;altitude;pressure_sealevel;temperature;humidity
13734;BME280;43298;52.560;13.508;2023-08-06T00:00:27;100167.69;;;17.38;100.00
13734;BME280;43298;52.560;13.508;2023-08-06T00:02:53;100162.47;;;17.38;100.00
13734;BME280;43298;52.560;13.508;2023-08-06T00:05:19;100160.59;;;17.40;100.00
13734;BME280;43298;52.560;13.508;2023-08-06T00:07:50;100161.91;;;17.34;100.00
13734;BME280;43298;52.560;13.508;2023-08-06T00:10:17;100167.25;;;17.33;100.00
13734;BME280;43298;52.560;13.508;2023-08-06T00:12:43;100159.41;;;17.33;100.00
13734;BME280;43298;52.560;13.508;2023-08-06T00:15:10;100154.41;;;17.30;100.00
13734;BME280;43298;52.560;13.508;2023-08-06T00:17:37;100153.72;;;17.28;100.00
13734;BME280;43298;52.560;13.508;2023-08-06T00:20:04;100152.75;;;17.29;100.00
13734;BME280;43298;52.560;13.508;2023-08-06T00:22:37;100140.66;;;17.28;100.00
13734;BME280;43298;52.560;13.508;2023-08-06T00:25:04;100135.78;;;17.23;100.00
13734;BME280;43298;52.560;13.508;2023-08-06T00:27:31;100141.47;;;17.28;100.00
13734;BME280;43298;52.560;13.508;2023-08-06T00:29:58;100127.81;;;17.25;100.00
13734;BME280;43298;52.560;13.508;2023-08-06T00:32:24;100127.81;;;17.25;100.00
13734;BME280;43298;52.560;13.508;2023-08-06T00:34:50;100133.16;;;17.23;100.00
13734;BME280;43298;52.560;13.508;2023-08-06T00:37:16;100136.34;;;17.27;100.00
13734;BME280;43298;52.560;13.508;2023-08-06T00:39:43;100123.28;;;17.27;100.00
13734;BME280;43298;52.560;13.508;2023-08-06T00:42:11;100125.22;;;17.25;100.00
13734;BME280;43298;52.560;13.508;2023-08-06T00:44:38;100124.13;;;17.27;100.00
13734;BME280;43298;52.560;13.508;2023-08-06T00:47:04;100122.47;;;17.26;100.00
13734;BME280;43298;52.560;13.508;2023-08-06T00:49:31;100121.63;;;17.26;100.00
13734;BME280;43298;52.560;13.508;2023-08-06T00:51:57;100118.31;;;17.24;100.00
13734;BME280;43298;52.560;13.508;2023-08-06T00:54:23;100119.03;;;17.26;100.00
13734;BME280;43298;52.560;13.508;2023-08-06T00:56:50;100122.72;;;17.23;100.00
13734;BME280;43298;52.560;13.508;2023-08-06T00:59:16;100115.72;;;17.24;100.00
13734;BME280;43298;52.560;13.508;2023-08-06T01:01:42;100114.16;;;17.21;100.00
13734;BME280;43298;52.560;13.508;2023-08-06T01:04:09;100116.66;;;17.23;100.00
13734;BME280;43298;52.560;13.508;2023-08-06T01:06:52;100113.34;;;17.21;100.00
13734;BME280;43298;52.560;13.508;2023-08-06T01:09:50;100111.09;;;17.16;100.00
13734;BME280;43298;52.560;13.508;2023-08-06T01:12:37;100109.53;;;17.14;100.00
13734;BME280;43298;52.560;13.508;2023-08-06T01:15:19;100112.28;;;17.12;100.00
13734;BME280;43298;52.560;13.508;2023-08-06T01:17:47;100109.78;;;17.11;100.00
13734;BME280;43298;52.560;13.508;2023-08-06T01:20:13;100109.06;;;17.09;100.00
13734;BME280;43298;52.560;13.508;2023-08-06T01:22:39;100101.09;;;17.10;100.00
13734;BME280;43298;52.560;13.508;2023-08-06T01:25:06;100090.66;;;17.10;100.00
13734;BME280;43298;52.560;13.508;2023-08-06T01:27:49;100100.88;;;17.13;100.00
13734;BME280;43298;52.560;13.508;2023-08-06T01:30:31;100091.72;;;17.08;100.00
13734;BME280;43298;52.560;13.508;2023-08-06T01:33:04;100086.03;;;17.14;100.00
13734;BME280;43298;52.560;13.508;2023-08-06T01:35:32;100086.50;;;17.08;100.00
13734;BME280;43298;52.560;13.508;2023-08-06T01:38:00;100081.50;;;17.05;100.00
13734;BME280;43298;52.560;13.508;2023-08-06T01:40:27;100079.03;;;17.03;100.00
13734;BME280;43298;52.560;13.508;2023-08-06T01:42:54;100081.75;;;17.02;100.00
13734;BME280;43298;52.560;13.508;2023-08-06T01:45:19;100091.50;;;17.00;100.00
13734;BME280;43298;52.560;13.508;2023-08-06T01:47:45;100089.00;;;16.98;100.00
13734;BME280;43298;52.560;13.508;2023-08-06T01:50:11;100071.81;;;16.96;100.00
13734;BME280;43298;52.560;13.508;2023-08-06T01:52:37;100072.28;;;16.90;100.00
13734;BME280;43298;52.560;13.508;2023-08-06T01:55:03;100065.28;;;16.90;100.00
13734;BME280;43298;52.560;13.508;2023-08-06T01:57:29;100062.66;;;16.90;100.00
13734;BME280;43298;52.560;13.508;2023-08-06T01:59:55;100058.75;;;16.85;100.00
13734;BME280;43298;52.560;13.508;2023-08-06T02:02:20;100046.63;;;16.84;100.00
13734;BME280;43298;52.560;13.508;2023-08-06T02:04:46;100046.84;;;16.81;100.00
13734;BME280;43298;52.560;13.508;2023-08-06T02:07:12;100039.28;;;16.78;100.00
13734;BME280;43298;52.560;13.508;2023-08-06T02:09:38;100039.97;;;16.80;100.00
13734;BME280;43298;52.560;13.508;2023-08-06T02:12:04;100034.06;;;16.78;100.00
13734;BME280;43298;52.560;13.508;2023-08-06T02:14:30;100036.19;;;16.73;100.00
13734;BME280;43298;52.560;13.508;2023-08-06T02:16:56;100021.47;;;16.72;100.00
13734;BME280;43298;52.560;13.508;2023-08-06T02:19:21;100015.53;;;16.70;100.00
13734;BME280;43298;52.560;13.508;2023-08-06T02:21:47;100015.66;;;16.68;100.00
13734;BME280;43298;52.560;13.508;2023-08-06T02:24:13;100012.00;;;16.71;100.00
13734;BME280;43298;52.560;13.508;2023-08-06T02:26:39;99997.53;;;16.67;100.00
13734;BME280;43298;52.560;13.508;2023-08-06T02:29:04;100003.78;;;16.64;100.00
13734;BME280;43298;52.560;13.508;2023-08-06T02:31:30;99998.44;;;16.66;100.00
13734;BME280;43298;52.560;13.508;2023-08-06T02:33:56;99992.16;;;16.68;100.00
13734;BME280;43298;52.560;13.508;2023-08-06T02:36:24;99982.91;;;16.64;100.00
13734;BME280;43298;52.560;13.508;2023-08-06T02:38:50;99992.31;;;16.67;100.00
13734;BME280;43298;52.560;13.508;2023-08-06T02:41:16;99986.59;;;16.62;100.00
13734;BME280;43298;52.560;13.508;2023-08-06T02:43:41;99959.53;;;16.63;100.00
13734;BME280;43298;52.560;13.508;2023-08-06T02:46:07;99959.53;;;16.63;100.00
13734;BME280;43298;52.560;13.508;2023-08-06T02:48:33;99951.56;;;16.64;100.00
13734;BME280;43298;52.560;13.508;2023-08-06T02:50:59;99955.25;;;16.62;100.00
13734;BME280;43298;52.560;13.508;2023-08-06T02:53:25;99953.38;;;16.64;100.00
13734;BME280;43298;52.560;13.508;2023-08-06T02:55:51;99943.16;;;16.61;100.00
13734;BME280;43298;52.560;13.508;2023-08-06T02:58:17;99949.81;;;16.65;100.00
13734;BME280;43298;52.560;13.508;2023-08-06T03:01:02;99950.03;;;16.62;100.00
13734;BME280;43298;52.560;13.508;2023-08-06T03:03:30;99950.88;;;16.62;100.00
13734;BME280;43298;52.560;13.508;2023-08-06T03:05:56;99946.22;;;16.66;100.00
13734;BME280;43298;52.560;13.508;2023-08-06T03:08:22;99937.72;;;16.64;100.00
13734;BME280;43298;52.560;13.508;2023-08-06T03:10:49;99936.97;;;16.62;100.00
13734;BME280;43298;52.560;13.508;2023-08-06T03:13:19;99940.91;;;16.56;100.00
13734;BME280;43298;52.560;13.508;2023-08-06T03:15:58;99936.53;;;16.57;100.00
13734;BME280;43298;52.560;13.508;2023-08-06T03:18:25;99935.81;;;16.55;100.00
13734;BME280;43298;52.560;13.508;2023-08-06T03:20:51;99931.44;;;16.55;100.00
13734;BME280;43298;52.560;13.508;2023-08-06T03:23:17;99920.16;;;16.44;100.00
13734;BME280;43298;52.560;13.508;2023-08-06T03:25:44;99930.00;;;16.40;100.00
13734;BME280;43298;52.560;13.508;2023-08-06T03:28:10;99918.41;;;16.44;100.00
13734;BME280;43298;52.560;13.508;2023-08-06T03:30:36;99909.25;;;16.39;100.00
13734;BME280;43298;52.560;13.508;2023-08-06T03:33:02;99905.78;;;16.38;100.00
13734;BME280;43298;52.560;13.508;2023-08-06T03:35:28;99897.38;;;16.35;100.00
13734;BME280;43298;52.560;13.508;2023-08-06T03:37:53;99895.59;;;16.35;100.00
13734;BME280;43298;52.560;13.508;2023-08-06T03:40:19;99882.53;;;16.35;100.00
13734;BME280;43298;52.560;13.508;2023-08-06T03:42:45;99904.81;;;16.39;100.00
13734;BME280;43298;52.560;13.508;2023-08-06T03:45:11;99900.81;;;16.35;100.00
13734;BME280;43298;52.560;13.508;2023-08-06T03:47:37;99899.84;;;16.36;100.00
13734;BME280;43298;52.560;13.508;2023-08-06T03:50:03;99893.56;;;16.39;100.00
13734;BME280;43298;52.560;13.508;2023-08-06T03:52:29;99895.47;;;16.37;100.00
13734;BME280;43298;52.560;13.508;2023-08-06T03:54:54;99899.59;;;16.39;100.00
13734;BME280;43298;52.560;13.508;2023-08-06T03:57:20;99899.72;;;16.38;100.00
13734;BME280;43298;52.560;13.508;2023-08-06T03:59:46;99891.47;;;16.44;100.00
13734;BME280;43298;52.560;13.508;2023-08-06T04:02:12;99882.19;;;16.40;100.00
13734;BME280;43298;52.560;13.508;2023-08-06T04:04:37;99887.88;;;16.45;100.00
13734;BME280;43298;52.560;13.508;2023-08-06T04:07:03;99882.19;;;16.40;100.00
13734;BME280;43298;52.560;13.508;2023-08-06T04:09:29;99879.56;;;16.40;100.00
13734;BME280;43298;52.560;13.508;2023-08-06T04:11:55;99873.50;;;16.39;100.00
13734;BME280;43298;52.560;13.508;2023-08-06T04:14:21;99872.69;;;16.39;100.00
13734;BME280;43298;52.560;13.508;2023-08-06T04:16:47;99869.59;;;16.34;100.00
13734;BME280;43298;52.560;13.508;2023-08-06T04:19:13;99867.84;;;16.34;100.00
13734;BME280;43298;52.560;13.508;2023-08-06T04:21:39;99867.47;;;16.39;100.00
13734;BME280;43298;52.560;13.508;2023-08-06T04:24:04;99872.47;;;16.42;100.00
13734;BME280;43298;52.560;13.508;2023-08-06T04:26:30;99864.88;;;16.39;100.00
13734;BME280;43298;52.560;13.508;2023-08-06T04:28:56;99865.81;;;16.38;100.00
13734;BME280;43298;52.560;13.508;2023-08-06T04:31:22;99860.13;;;16.44;100.00
13734;BME280;43298;52.560;13.508;2023-08-06T04:33:48;99853.97;;;16.45;100.00
13734;BME280;43298;52.560;13.508;2023-08-06T04:36:14;99851.34;;;16.45;100.00
13734;BME280;43298;52.560;13.508;2023-08-06T04:38:40;99846.13;;;16.45;100.00
13734;BME280;43298;52.560;13.508;2023-08-06T04:41:11;99844.34;;;16.45;100.00
13734;BME280;43298;52.560;13.508;2023-08-06T04:43:37;99843.63;;;16.43;100.00
13734;BME280;43298;52.560;13.508;2023-08-06T04:46:03;99839.03;;;16.47;100.00
13734;BME280;43298;52.560;13.508;2023-08-06T04:48:28;99833.78;;;16.47;100.00
13734;BME280;43298;52.560;13.508;2023-08-06T04:50:54;99833.78;;;16.47;100.00
13734;BME280;43298;52.560;13.508;2023-08-06T04:53:20;99836.97;;;16.50;100.00
13734;BME280;43298;52.560;13.508;2023-08-06T04:55:46;99831.88;;;16.49;100.00
13734;BME280;43298;52.560;13.508;2023-08-06T04:58:13;99853.72;;;16.48;100.00
13734;BME280;43298;52.560;13.508;2023-08-06T05:00:39;99963.31;;;16.59;100.00
13734;BME280;43298;52.560;13.508;2023-08-06T05:03:06;99973.53;;;16.62;100.00
13734;BME280;43298;52.560;13.508;2023-08-06T05:05:32;99969.50;;;16.58;100.00
13734;BME280;43298;52.560;13.508;2023-08-06T05:07:58;99966.44;;;16.53;100.00
13734;BME280;43298;52.560;13.508;2023-08-06T05:10:27;99973.78;;;16.48;100.00
13734;BME280;43298;52.560;13.508;2023-08-06T05:12:53;99980.78;;;16.58;100.00
13734;BME280;43298;52.560;13.508;2023-08-06T05:15:20;99974.72;;;16.58;100.00
13734;BME280;43298;52.560;13.508;2023-08-06T05:17:46;99971.66;;;16.64;100.00
13734;BME280;43298;52.560;13.508;2023-08-06T05:20:11;99965.09;;;16.69;100.00
13734;BME280;43298;52.560;13.508;2023-08-06T05:22:37;99956.31;;;16.70;100.00
13734;BME280;43298;52.560;13.508;2023-08-06T05:25:03;99954.16;;;16.75;100.00
13734;BME280;43298;52.560;13.508;2023-08-06T05:27:30;99949.44;;;16.69;100.00
13734;BME280;43298;52.560;13.508;2023-08-06T05:29:56;99953.13;;;16.78;100.00
13734;BME280;43298;52.560;13.508;2023-08-06T05:32:22;99955.97;;;16.75;100.00
13734;BME280;43298;52.560;13.508;2023-08-06T05:34:48;99944.66;;;16.85;100.00
13734;BME280;43298;52.560;13.508;2023-08-06T05:37:14;99946.44;;;16.85;100.00
13734;BME280;43298;52.560;13.508;2023-08-06T05:39:39;99943.00;;;16.84;100.00
13734;BME280;43298;52.560;13.508;2023-08-06T05:42:06;99942.16;;;16.84;100.00
13734;BME280;43298;52.560;13.508;2023-08-06T05:44:32;99944.53;;;16.87;100.00
13734;BME280;43298;52.560;13.508;2023-08-06T05:46:58;99943.25;;;16.81;100.00
13734;BME280;43298;52.560;13.508;2023-08-06T05:49:24;99946.22;;;16.77;100.00
13734;BME280;43298;52.560;13.508;2023-08-06T05:51:49;99946.78;;;16.91;100.00
13734;BME280;43298;52.560;13.508;2023-08-06T05:54:15;99951.63;;;16.96;100.00
13734;BME280;43298;52.560;13.508;2023-08-06T05:56:41;99952.00;;;16.91;100.00
13734;BME280;43298;52.560;13.508;2023-08-06T05:59:07;99952.34;;;16.98;100.00
13734;BME280;43298;52.560;13.508;2023-08-06T06:01:33;99950.41;;;17.11;100.00
13734;BME280;43298;52.560;13.508;2023-08-06T06:03:58;99942.63;;;17.20;100.00
13734;BME280;43298;52.560;13.508;2023-08-06T06:06:24;99941.69;;;17.21;100.00
13734;BME280;43298;52.560;13.508;2023-08-06T06:08:50;99939.81;;;17.12;100.00
13734;BME280;43298;52.560;13.508;2023-08-06T06:11:16;99935.75;;;17.19;100.00
13734;BME280;43298;52.560;13.508;2023-08-06T06:13:42;99934.25;;;17.17;100.00
13734;BME280;43298;52.560;13.508;2023-08-06T06:16:07;99933.16;;;17.19;100.00
13734;BME280;43298;52.560;13.508;2023-08-06T06:18:33;99936.00;;;17.16;100.00
13734;BME280;43298;52.560;13.508;2023-08-06T06:20:59;99930.38;;;17.32;100.00
13734;BME280;43298;52.560;13.508;2023-08-06T06:23:25;99927.16;;;17.28;100.00
13734;BME280;43298;52.560;13.508;2023-08-06T06:25:50;99928.84;;;17.29;100.00
13734;BME280;43298;52.560;13.508;2023-08-06T06:28:19;99925.19;;;17.21;100.00
13734;BME280;43298;52.560;13.508;2023-08-06T06:30:45;99919.66;;;17.03;100.00
13734;BME280;43298;52.560;13.508;2023-08-06T06:33:11;99919.06;;;17.11;100.00
13734;BME280;43298;52.560;13.508;2023-08-06T06:35:37;99925.81;;;17.13;100.00
13734;BME280;43298;52.560;13.508;2023-08-06T06:38:03;99917.28;;;17.11;100.00
13734;BME280;43298;52.560;13.508;2023-08-06T06:40:29;99918.81;;;17.14;100.00
13734;BME280;43298;52.560;13.508;2023-08-06T06:42:54;99915.78;;;17.29;100.00
13734;BME280;43298;52.560;13.508;2023-08-06T06:45:20;99916.34;;;17.33;100.00
13734;BME280;43298;52.560;13.508;2023-08-06T06:47:46;99911.91;;;17.44;100.00
13734;BME280;43298;52.560;13.508;2023-08-06T06:50:12;99915.06;;;17.27;100.00
13734;BME280;43298;52.560;13.508;2023-08-06T06:52:38;99908.34;;;17.45;100.00
13734;BME280;43298;52.560;13.508;2023-08-06T06:55:04;99912.19;;;17.30;100.00
13734;BME280;43298;52.560;13.508;2023-08-06T06:57:30;99902.06;;;17.37;100.00
13734;BME280;43298;52.560;13.508;2023-08-06T06:59:56;99909.50;;;17.21;100.00
13734;BME280;43298;52.560;13.508;2023-08-06T07:02:21;99907.34;;;17.26;100.00
13734;BME280;43298;52.560;13.508;2023-08-06T07:04:47;99902.94;;;17.26;100.00
13734;BME280;43298;52.560;13.508;2023-08-06T07:07:13;99905.63;;;17.15;100.00
13734;BME280;43298;52.560;13.508;2023-08-06T07:09:39;99908.75;;;17.30;100.00
13734;BME280;43298;52.560;13.508;2023-08-06T07:12:06;99903.50;;;17.30;100.00
13734;BME280;43298;52.560;13.508;2023-08-06T07:14:31;99899.44;;;17.37;100.00
13734;BME280;43298;52.560;13.508;2023-08-06T07:16:57;99895.44;;;17.53;100.00
13734;BME280;43298;52.560;13.508;2023-08-06T07:19:23;99895.66;;;17.61;100.00
13734;BME280;43298;52.560;13.508;2023-08-06T07:21:49;99901.75;;;17.71;100.00
13734;BME280;43298;52.560;13.508;2023-08-06T07:24:16;99899.13;;;17.71;100.00
13734;BME280;43298;52.560;13.508;2023-08-06T07:26:41;99900.56;;;17.55;100.00
13734;BME280;43298;52.560;13.508;2023-08-06T07:29:07;99898.16;;;17.63;100.00
13734;BME280;43298;52.560;13.508;2023-08-06T07:31:33;99887.88;;;17.71;100.00
13734;BME280;43298;52.560;13.508;2023-08-06T07:33:59;99888.03;;;17.79;100.00
13734;BME280;43298;52.560;13.508;2023-08-06T07:36:25;99887.06;;;17.80;100.00
13734;BME280;43298;52.560;13.508;2023-08-06T07:38:51;99882.69;;;17.80;100.00
13734;BME280;43298;52.560;13.508;2023-08-06T07:41:22;99883.84;;;17.97;100.00
13734;BME280;43298;52.560;13.508;2023-08-06T07:43:48;99875.47;;;17.94;100.00
13734;BME280;43298;52.560;13.508;2023-08-06T07:46:15;99884.69;;;17.98;100.00
13734;BME280;43298;52.560;13.508;2023-08-06T07:48:40;99883.44;;;17.92;100.00
13734;BME280;43298;52.560;13.508;2023-08-06T07:51:06;99883.19;;;17.95;100.00
13734;BME280;43298;52.560;13.508;2023-08-06T07:53:32;99877.88;;;17.85;100.00
13734;BME280;43298;52.560;13.508;2023-08-06T07:55:58;99889.34;;;17.64;100.00
13734;BME280;43298;52.560;13.508;2023-08-06T07:58:25;99880.66;;;17.63;100.00
13734;BME280;43298;52.560;13.508;2023-08-06T08:00:51;99874.78;;;17.71;100.00
13734;BME280;43298;52.560;13.508;2023-08-06T08:03:17;99869.38;;;17.63;100.00
13734;BME280;43298;52.560;13.508;2023-08-06T08:05:44;99868.53;;;17.62;100.00
13734;BME280;43298;52.560;13.508;2023-08-06T08:08:10;99868.69;;;17.61;100.00
13734;BME280;43298;52.560;13.508;2023-08-06T08:10:36;99865.25;;;17.70;100.00
13734;BME280;43298;52.560;13.508;2023-08-06T08:13:04;99861.97;;;17.68;100.00
13734;BME280;43298;52.560;13.508;2023-08-06T08:15:31;99864.28;;;17.61;100.00
13734;BME280;43298;52.560;13.508;2023-08-06T08:17:58;99868.28;;;17.65;100.00
13734;BME280;43298;52.560;13.508;2023-08-06T08:20:24;99862.31;;;17.54;100.00
13734;BME280;43298;52.560;13.508;2023-08-06T08:22:50;99867.03;;;17.60;100.00
13734;BME280;43298;52.560;13.508;2023-08-06T08:25:16;99851.09;;;17.63;100.00
13734;BME280;43298;52.560;13.508;2023-08-06T08:27:42;99849.88;;;17.67;100.00
13734;BME280;43298;52.560;13.508;2023-08-06T08:30:08;99848.50;;;17.72;100.00
13734;BME280;43298;52.560;13.508;2023-08-06T08:32:34;99846.75;;;17.82;100.00
13734;BME280;43298;52.560;13.508;2023-08-06T08:35:00;99840.09;;;17.99;100.00
13734;BME280;43298;52.560;13.508;2023-08-06T08:37:26;99844.72;;;17.86;100.00
13734;BME280;43298;52.560;13.508;2023-08-06T08:39:51;99838.19;;;18.11;100.00
13734;BME280;43298;52.560;13.508;2023-08-06T08:42:18;99832.16;;;18.20;100.00
13734;BME280;43298;52.560;13.508;2023-08-06T08:44:44;99831.59;;;18.16;100.00
13734;BME280;43298;52.560;13.508;2023-08-06T08:47:11;99828.25;;;17.95;100.00
13734;BME280;43298;52.560;13.508;2023-08-06T08:49:39;99822.78;;;18.08;100.00
13734;BME280;43298;52.560;13.508;2023-08-06T08:52:06;99815.31;;;18.03;100.00
13734;BME280;43298;52.560;13.508;2023-08-06T08:54:35;99816.97;;;18.04;100.00
13734;BME280;43298;52.560;13.508;2023-08-06T08:57:04;99812.69;;;18.03;100.00
13734;BME280;43298;52.560;13.508;2023-08-06T08:59:29;99807.31;;;17.95;100.00
13734;BME280;43298;52.560;13.508;2023-08-06T09:01:55;99805.09;;;17.91;100.00
13734;BME280;43298;52.560;13.508;2023-08-06T09:04:23;99811.31;;;17.99;100.00
13734;BME280;43298;52.560;13.508;2023-08-06T09:06:51;99806.47;;;17.95;100.00
13734;BME280;43298;52.560;13.508;2023-08-06T09:09:26;99805.09;;;18.00;100.00
13734;BME280;43298;52.560;13.508;2023-08-06T09:11:57;99799.47;;;17.95;100.00
13734;BME280;43298;52.560;13.508;2023-08-06T09:14:26;99795.28;;;17.92;100.00
13734;BME280;43298;52.560;13.508;2023-08-06T09:16:51;99792.81;;;17.91;100.00
13734;BME280;43298;52.560;13.508;2023-08-06T09:19:17;99798.50;;;18.06;100.00
13734;BME280;43298;52.560;13.508;2023-08-06T09:21:45;99792.19;;;18.08;100.00
13734;BME280;43298;52.560;13.508;2023-08-06T09:24:14;99789.66;;;17.97;100.00
13734;BME280;43298;52.560;13.508;2023-08-06T09:26:43;99792.06;;;18.19;100.00
13734;BME280;43298;52.560;13.508;2023-08-06T09:29:10;99794.16;;;18.35;100.00
13734;BME280;43298;52.560;13.508;2023-08-06T09:31:45;99789.44;;;18.19;100.00
13734;BME280;43298;52.560;13.508;2023-08-06T09:34:16;99779.28;;;18.26;100.00
13734;BME280;43298;52.560;13.508;2023-08-06T09:36:48;99778.03;;;18.20;100.00
13734;BME280;43298;52.560;13.508;2023-08-06T09:39:21;99777.84;;;18.12;100.00
13734;BME280;43298;52.560;13.508;2023-08-06T09:41:47;99779.53;;;18.13;100.00
13734;BME280;43298;52.560;13.508;2023-08-06T09:44:18;99775.13;;;18.23;100.00
13734;BME280;43298;52.560;13.508;2023-08-06T09:47:04;99766.91;;;18.37;100.00
13734;BME280;43298;52.560;13.508;2023-08-06T09:51:59;99761.91;;;18.34;100.00
13734;BME280;43298;52.560;13.508;2023-08-06T09:54:27;99756.13;;;18.21;100.00
13734;BME280;43298;52.560;13.508;2023-08-06T09:56:54;99748.75;;;18.45;100.00
13734;BME280;43298;52.560;13.508;2023-08-06T09:59:20;99750.94;;;18.50;100.00
13734;BME280;43298;52.560;13.508;2023-08-06T10:01:46;99750.91;;;18.31;100.00
13734;BME280;43298;52.560;13.508;2023-08-06T10:04:14;99749.69;;;18.44;100.00
13734;BME280;43298;52.560;13.508;2023-08-06T10:06:42;99755.19;;;18.41;100.00
13734;BME280;43298;52.560;13.508;2023-08-06T10:09:08;99749.81;;;18.43;100.00
13734;BME280;43298;52.560;13.508;2023-08-06T10:11:36;99739.91;;;18.46;100.00
13734;BME280;43298;52.560;13.508;2023-08-06T10:14:11;99734.94;;;18.34;100.00
13734;BME280;43298;52.560;13.508;2023-08-06T10:16:41;99728.47;;;18.38;100.00
13734;BME280;43298;52.560;13.508;2023-08-06T10:19:10;99737.69;;;18.32;100.00
13734;BME280;43298;52.560;13.508;2023-08-06T10:21:40;99728.97;;;18.32;100.00
13734;BME280;43298;52.560;13.508;2023-08-06T10:24:09;99725.03;;;18.47;100.00
13734;BME280;43298;52.560;13.508;2023-08-06T10:26:40;99729.31;;;18.57;100.00
13734;BME280;43298;52.560;13.508;2023-08-06T10:29:51;99723.78;;;18.41;100.00
13734;BME280;43298;52.560;13.508;2023-08-06T10:32:17;99718.97;;;18.37;100.00
13734;BME280;43298;52.560;13.508;2023-08-06T10:34:59;99723.38;;;18.36;100.00
13734;BME280;43298;52.560;13.508;2023-08-06T10:37:36;99720.88;;;18.54;100.00
13734;BME280;43298;52.560;13.508;2023-08-06T10:40:03;99720.34;;;18.50;100.00
13734;BME280;43298;52.560;13.508;2023-08-06T10:42:31;99714.97;;;18.61;100.00
13734;BME280;43298;52.560;13.508;2023-08-06T10:45:19;99726.41;;;18.41;100.00
13734;BME280;43298;52.560;13.508;2023-08-06T10:47:46;99716.75;;;18.61;100.00
13734;BME280;43298;52.560;13.508;2023-08-06T10:50:14;99712.06;;;18.64;100.00
13734;BME280;43298;52.560;13.508;2023-08-06T10:52:47;99710.97;;;18.57;100.00
13734;BME280;43298;52.560;13.508;2023-08-06T10:55:14;99700.47;;;18.67;100.00
13734;BME280;43298;52.560;13.508;2023-08-06T10:57:40;99697.31;;;18.73;100.00
13734;BME280;43298;52.560;13.508;2023-08-06T11:00:08;99701.47;;;18.66;100.00
13734;BME280;43298;52.560;13.508;2023-08-06T11:02:37;99700.75;;;18.73;100.00
13734;BME280;43298;52.560;13.508;2023-08-06T11:05:10;99696.19;;;18.75;100.00
13734;BME280;43298;52.560;13.508;2023-08-06T11:07:36;99686.72;;;18.65;100.00
13734;BME280;43298;52.560;13.508;2023-08-06T11:10:08;99691.66;;;18.68;100.00
13734;BME280;43298;52.560;13.508;2023-08-06T11:12:35;99696.22;;;18.66;100.00
13734;BME280;43298;52.560;13.508;2023-08-06T11:15:03;99685.88;;;18.64;100.00
13734;BME280;43298;52.560;13.508;2023-08-06T11:17:30;99683.81;;;18.58;100.00
13734;BME280;43298;52.560;13.508;2023-08-06T11:20:00;99688.50;;;18.36;100.00
13734;BME280;43298;52.560;13.508;2023-08-06T11:22:26;99676.94;;;18.48;100.00
13734;BME280;43298;52.560;13.508;2023-08-06T11:24:53;99673.75;;;18.54;100.00
13734;BME280;43298;52.560;13.508;2023-08-06T11:27:20;99672.38;;;18.50;100.00
13734;BME280;43298;52.560;13.508;2023-08-06T11:29:45;99673.63;;;18.46;100.00
13734;BME280;43298;52.560;13.508;2023-08-06T11:32:14;99666.59;;;18.56;100.00
13734;BME280;43298;52.560;13.508;2023-08-06T11:34:40;99666.03;;;18.62;100.00
13734;BME280;43298;52.560;13.508;2023-08-06T11:37:07;99662.59;;;18.61;100.00
13734;BME280;43298;52.560;13.508;2023-08-06T11:39:38;99661.06;;;18.68;100.00
13734;BME280;43298;52.560;13.508;2023-08-06T11:42:08;99652.53;;;18.57;100.00
13734;BME280;43298;52.560;13.508;2023-08-06T11:44:37;99640.97;;;18.50;100.00
13734;BME280;43298;52.560;13.508;2023-08-06T11:47:04;99652.38;;;18.58;100.00
13734;BME280;43298;52.560;13.508;2023-08-06T11:49:45;99646.91;;;18.42;100.00
13734;BME280;43298;52.560;13.508;2023-08-06T11:52:17;99642.34;;;18.44;100.00
13734;BME280;43298;52.560;13.508;2023-08-06T11:54:46;99648.44;;;18.35;100.00
13734;BME280;43298;52.560;13.508;2023-08-06T11:57:12;99639.34;;;18.39;100.00
13734;BME280;43298;52.560;13.508;2023-08-06T11:59:39;99633.63;;;18.34;100.00
13734;BME280;43298;52.560;13.508;2023-08-06T12:02:09;99631.22;;;18.42;100.00
13734;BME280;43298;52.560;13.508;2023-08-06T12:05:05;99628.69;;;18.50;100.00
13734;BME280;43298;52.560;13.508;2023-08-06T12:07:39;99630.22;;;18.53;100.00
13734;BME280;43298;52.560;13.508;2023-08-06T12:10:05;99623.50;;;18.41;100.00
13734;BME280;43298;52.560;13.508;2023-08-06T12:12:31;99636.44;;;18.42;100.00
13734;BME280;43298;52.560;13.508;2023-08-06T12:14:57;99628.00;;;18.48;100.00
13734;BME280;43298;52.560;13.508;2023-08-06T12:17:24;99627.31;;;18.56;100.00
13734;BME280;43298;52.560;13.508;2023-08-06T12:19:50;99621.91;;;18.67;100.00
13734;BME280;43298;52.560;13.508;2023-08-06T12:22:17;99620.03;;;18.59;100.00
13734;BME280;43298;52.560;13.508;2023-08-06T12:24:44;99617.91;;;18.72;100.00
13734;BME280;43298;52.560;13.508;2023-08-06T12:27:11;99620.22;;;18.75;100.00
13734;BME280;43298;52.560;13.508;2023-08-06T12:29:44;99615.84;;;18.76;100.00
13734;BME280;43298;52.560;13.508;2023-08-06T12:32:11;99618.31;;;18.77;100.00
13734;BME280;43298;52.560;13.508;2023-08-06T12:34:42;99617.66;;;18.66;100.00
13734;BME280;43298;52.560;13.508;2023-08-06T12:37:08;99623.25;;;18.80;100.00
13734;BME280;43298;52.560;13.508;2023-08-06T12:39:35;99626.97;;;18.78;100.00
13734;BME280;43298;52.560;13.508;2023-08-06T12:42:03;99624.03;;;18.90;100.00